sensor_id;sensor_type;location;lat;lon;timestamp;P1;durP1;ratioP1;P2;durP2;ratioP2
22924;SDS011;11628;51.072;3.712;2023-02-21T00:05:15;43.83;;;26.42;;
22924;SDS011;11628;51.072;3.712;2023-02-21T00:07:59;48.53;;;28.70;;
22924;SDS011;11628;51.072;3.712;2023-02-21T00:10:44;44.75;;;28.63;;
22924;SDS011;11628;51.072;3.712;2023-02-21T00:13:28;45.72;;;28.30;;
22924;SDS011;11628;51.072;3.712;2023-02-21T00:16:16;40.80;;;26.45;;
22924;SDS011;11628;51.072;3.712;2023-02-21T00:19:01;50.45;;;29.08;;
22924;SDS011;11628;51.072;3.712;2023-02-21T00:21:46;46.50;;;28.15;;
22924;SDS011;11628;51.072;3.712;2023-02-21T00:24:30;44.08;;;26.30;;
22924;SDS011;11628;51.072;3.712;2023-02-21T00:27:14;47.47;;;28.25;;
22924;SDS011;11628;51.072;3.712;2023-02-21T00:32:42;47.22;;;27.92;;
22924;SDS011;11628;51.072;3.712;2023-02-21T00:35:26;49.45;;;30.90;;
22924;SDS011;11628;51.072;3.712;2023-02-21T00:38:11;48.72;;;29.08;;
22924;SDS011;11628;51.072;3.712;2023-02-21T00:40:55;50.33;;;29.77;;
22924;SDS011;11628;51.072;3.712;2023-02-21T00:43:40;48.58;;;28.70;;
22924;SDS011;11628;51.072;3.712;2023-02-21T00:46:24;45.47;;;27.95;;
22924;SDS011;11628;51.072;3.712;2023-02-21T00:49:08;47.50;;;28.58;;
22924;SDS011;11628;51.072;3.712;2023-02-21T00:51:53;46.45;;;27.58;;
22924;SDS011;11628;51.072;3.712;2023-02-21T00:54:37;46.40;;;27.02;;
22924;SDS011;11628;51.072;3.712;2023-02-21T00:57:22;47.17;;;27.20;;
22924;SDS011;11628;51.072;3.712;2023-02-21T01:00:08;53.28;;;27.92;;
22924;SDS011;11628;51.072;3.712;2023-02-21T01:02:57;52.70;;;29.33;;
22924;SDS011;11628;51.072;3.712;2023-02-21T01:05:41;61.85;;;32.92;;
22924;SDS011;11628;51.072;3.712;2023-02-21T01:08:25;58.55;;;30.10;;
22924;SDS011;11628;51.072;3.712;2023-02-21T01:11:13;58.35;;;29.67;;
22924;SDS011;11628;51.072;3.712;2023-02-21T01:13:59;52.40;;;29.08;;
22924;SDS011;11628;51.072;3.712;2023-02-21T01:16:43;54.65;;;30.50;;
22924;SDS011;11628;51.072;3.712;2023-02-21T01:19:28;54.20;;;30.08;;
22924;SDS011;11628;51.072;3.712;2023-02-21T01:24:56;47.75;;;28.08;;
22924;SDS011;11628;51.072;3.712;2023-02-21T01:27:40;53.55;;;28.88;;
22924;SDS011;11628;51.072;3.712;2023-02-21T01:33:09;51.70;;;28.00;;
22924;SDS011;11628;51.072;3.712;2023-02-21T01:35:53;44.50;;;26.45;;
22924;SDS011;11628;51.072;3.712;2023-02-21T01:38:37;46.20;;;26.08;;
22924;SDS011;11628;51.072;3.712;2023-02-21T01:41:22;49.13;;;27.92;;
22924;SDS011;11628;51.072;3.712;2023-02-21T01:47:14;50.10;;;26.95;;
22924;SDS011;11628;51.072;3.712;2023-02-21T01:49:58;53.45;;;26.90;;
22924;SDS011;11628;51.072;3.712;2023-02-21T01:52:46;46.10;;;26.55;;
22924;SDS011;11628;51.072;3.712;2023-02-21T01:55:32;50.70;;;27.25;;
22924;SDS011;11628;51.072;3.712;2023-02-21T01:58:20;51.38;;;27.73;;
22924;SDS011;11628;51.072;3.712;2023-02-21T02:01:07;51.05;;;26.67;;
22924;SDS011;11628;51.072;3.712;2023-02-21T02:03:56;57.50;;;28.92;;
22924;SDS011;11628;51.072;3.712;2023-02-21T02:06:41;56.03;;;28.35;;
22924;SDS011;11628;51.072;3.712;2023-02-21T02:09:26;52.75;;;28.17;;
22924;SDS011;11628;51.072;3.712;2023-02-21T02:20:46;59.58;;;29.80;;
22924;SDS011;11628;51.072;3.712;2023-02-21T02:34:47;63.90;;;31.00;;
22924;SDS011;11628;51.072;3.712;2023-02-21T02:39:57;64.97;;;30.42;;
22924;SDS011;11628;51.072;3.712;2023-02-21T02:42:39;61.55;;;29.90;;
22924;SDS011;11628;51.072;3.712;2023-02-21T02:47:41;65.47;;;30.38;;
22924;SDS011;11628;51.072;3.712;2023-02-21T02:50:10;63.17;;;30.05;;
22924;SDS011;11628;51.072;3.712;2023-02-21T02:52:38;60.33;;;29.50;;
22924;SDS011;11628;51.072;3.712;2023-02-21T02:55:23;63.85;;;29.75;;
22924;SDS011;11628;51.072;3.712;2023-02-21T02:57:57;62.15;;;28.27;;
22924;SDS011;11628;51.072;3.712;2023-02-21T03:00:23;63.00;;;29.58;;
22924;SDS011;11628;51.072;3.712;2023-02-21T03:05:53;65.40;;;29.42;;
22924;SDS011;11628;51.072;3.712;2023-02-21T03:08:44;65.32;;;28.65;;
22924;SDS011;11628;51.072;3.712;2023-02-21T03:11:17;67.05;;;30.30;;
22924;SDS011;11628;51.072;3.712;2023-02-21T03:16:28;66.25;;;27.75;;
22924;SDS011;11628;51.072;3.712;2023-02-21T03:19:11;63.95;;;27.73;;
22924;SDS011;11628;51.072;3.712;2023-02-21T03:21:42;65.55;;;29.10;;
22924;SDS011;11628;51.072;3.712;2023-02-21T03:24:12;62.03;;;26.75;;
22924;SDS011;11628;51.072;3.712;2023-02-21T03:26:41;60.65;;;25.60;;
22924;SDS011;11628;51.072;3.712;2023-02-21T03:29:10;60.13;;;25.20;;
22924;SDS011;11628;51.072;3.712;2023-02-21T03:31:39;60.10;;;25.30;;
22924;SDS011;11628;51.072;3.712;2023-02-21T03:34:12;55.65;;;23.80;;
22924;SDS011;11628;51.072;3.712;2023-02-21T03:36:39;57.20;;;24.45;;
22924;SDS011;11628;51.072;3.712;2023-02-21T03:39:06;55.83;;;23.20;;
22924;SDS011;11628;51.072;3.712;2023-02-21T03:41:32;53.85;;;24.48;;
22924;SDS011;11628;51.072;3.712;2023-02-21T03:43:58;53.63;;;23.42;;
22924;SDS011;11628;51.072;3.712;2023-02-21T03:46:24;57.25;;;26.17;;
22924;SDS011;11628;51.072;3.712;2023-02-21T03:48:50;53.13;;;23.40;;
22924;SDS011;11628;51.072;3.712;2023-02-21T03:51:15;54.83;;;23.20;;
22924;SDS011;11628;51.072;3.712;2023-02-21T03:53:42;56.30;;;23.30;;
22924;SDS011;11628;51.072;3.712;2023-02-21T03:56:08;55.05;;;23.05;;
22924;SDS011;11628;51.072;3.712;2023-02-21T03:58:34;55.08;;;23.60;;
22924;SDS011;11628;51.072;3.712;2023-02-21T04:01:00;57.53;;;23.80;;
22924;SDS011;11628;51.072;3.712;2023-02-21T04:03:26;59.05;;;25.23;;
22924;SDS011;11628;51.072;3.712;2023-02-21T04:05:52;63.88;;;24.77;;
22924;SDS011;11628;51.072;3.712;2023-02-21T04:08:18;54.70;;;24.30;;
22924;SDS011;11628;51.072;3.712;2023-02-21T04:10:44;56.83;;;23.58;;
22924;SDS011;11628;51.072;3.712;2023-02-21T04:13:10;56.13;;;22.85;;
22924;SDS011;11628;51.072;3.712;2023-02-21T04:15:36;55.17;;;22.70;;
22924;SDS011;11628;51.072;3.712;2023-02-21T04:18:02;54.25;;;23.10;;
22924;SDS011;11628;51.072;3.712;2023-02-21T04:20:28;51.88;;;22.17;;
22924;SDS011;11628;51.072;3.712;2023-02-21T04:22:54;51.90;;;22.65;;
22924;SDS011;11628;51.072;3.712;2023-02-21T04:25:20;57.97;;;22.92;;
22924;SDS011;11628;51.072;3.712;2023-02-21T04:27:46;51.17;;;21.35;;
22924;SDS011;11628;51.072;3.712;2023-02-21T04:30:12;54.55;;;22.80;;
22924;SDS011;11628;51.072;3.712;2023-02-21T04:32:38;57.50;;;22.23;;
22924;SDS011;11628;51.072;3.712;2023-02-21T04:35:04;52.83;;;23.15;;
22924;SDS011;11628;51.072;3.712;2023-02-21T04:37:30;53.13;;;23.17;;
22924;SDS011;11628;51.072;3.712;2023-02-21T04:39:56;50.33;;;21.35;;
22924;SDS011;11628;51.072;3.712;2023-02-21T04:42:22;49.03;;;21.75;;
22924;SDS011;11628;51.072;3.712;2023-02-21T04:44:48;52.95;;;22.23;;
22924;SDS011;11628;51.072;3.712;2023-02-21T04:47:14;48.28;;;19.80;;
22924;SDS011;11628;51.072;3.712;2023-02-21T04:49:40;48.20;;;20.77;;
22924;SDS011;11628;51.072;3.712;2023-02-21T04:52:06;48.15;;;19.92;;
22924;SDS011;11628;51.072;3.712;2023-02-21T04:54:32;44.08;;;20.08;;
22924;SDS011;11628;51.072;3.712;2023-02-21T04:56:58;49.25;;;19.77;;
22924;SDS011;11628;51.072;3.712;2023-02-21T04:59:24;50.28;;;21.00;;
22924;SDS011;11628;51.072;3.712;2023-02-21T05:01:51;49.33;;;19.83;;
22924;SDS011;11628;51.072;3.712;2023-02-21T05:04:17;57.03;;;23.83;;
22924;SDS011;11628;51.072;3.712;2023-02-21T05:06:43;58.10;;;24.58;;
22924;SDS011;11628;51.072;3.712;2023-02-21T05:09:09;50.47;;;21.10;;
22924;SDS011;11628;51.072;3.712;2023-02-21T05:11:35;44.97;;;20.35;;
22924;SDS011;11628;51.072;3.712;2023-02-21T05:14:00;52.22;;;21.70;;
22924;SDS011;11628;51.072;3.712;2023-02-21T05:16:27;47.50;;;19.45;;
22924;SDS011;11628;51.072;3.712;2023-02-21T05:18:53;48.10;;;19.98;;
22924;SDS011;11628;51.072;3.712;2023-02-21T05:21:20;47.40;;;19.80;;
22924;SDS011;11628;51.072;3.712;2023-02-21T05:23:46;49.95;;;19.67;;
22924;SDS011;11628;51.072;3.712;2023-02-21T05:26:22;51.70;;;19.25;;
22924;SDS011;11628;51.072;3.712;2023-02-21T05:28:50;47.17;;;19.85;;
22924;SDS011;11628;51.072;3.712;2023-02-21T05:31:17;46.10;;;19.35;;
22924;SDS011;11628;51.072;3.712;2023-02-21T05:33:43;43.03;;;17.70;;
22924;SDS011;11628;51.072;3.712;2023-02-21T05:36:08;48.45;;;18.08;;
22924;SDS011;11628;51.072;3.712;2023-02-21T05:38:42;47.42;;;18.75;;
22924;SDS011;11628;51.072;3.712;2023-02-21T05:41:10;40.55;;;16.35;;
22924;SDS011;11628;51.072;3.712;2023-02-21T05:43:36;44.13;;;17.25;;
22924;SDS011;11628;51.072;3.712;2023-02-21T05:46:02;43.25;;;18.08;;
22924;SDS011;11628;51.072;3.712;2023-02-21T05:48:28;43.85;;;18.17;;
22924;SDS011;11628;51.072;3.712;2023-02-21T05:50:53;46.45;;;18.75;;
22924;SDS011;11628;51.072;3.712;2023-02-21T05:53:19;48.67;;;18.75;;
22924;SDS011;11628;51.072;3.712;2023-02-21T05:55:45;45.08;;;17.90;;
22924;SDS011;11628;51.072;3.712;2023-02-21T05:58:11;44.85;;;18.23;;
22924;SDS011;11628;51.072;3.712;2023-02-21T06:00:37;42.17;;;17.02;;
22924;SDS011;11628;51.072;3.712;2023-02-21T06:03:03;44.78;;;16.90;;
22924;SDS011;11628;51.072;3.712;2023-02-21T06:05:30;40.97;;;16.48;;
22924;SDS011;11628;51.072;3.712;2023-02-21T06:07:55;38.22;;;15.38;;
22924;SDS011;11628;51.072;3.712;2023-02-21T06:10:21;41.42;;;15.63;;
22924;SDS011;11628;51.072;3.712;2023-02-21T06:12:47;41.72;;;16.13;;
22924;SDS011;11628;51.072;3.712;2023-02-21T06:15:13;42.50;;;17.73;;
22924;SDS011;11628;51.072;3.712;2023-02-21T06:17:39;38.67;;;15.75;;
22924;SDS011;11628;51.072;3.712;2023-02-21T06:20:06;36.97;;;15.82;;
22924;SDS011;11628;51.072;3.712;2023-02-21T06:22:35;32.60;;;14.30;;
22924;SDS011;11628;51.072;3.712;2023-02-21T06:25:01;35.00;;;15.35;;
22924;SDS011;11628;51.072;3.712;2023-02-21T06:27:27;35.92;;;15.18;;
22924;SDS011;11628;51.072;3.712;2023-02-21T06:29:53;33.15;;;14.05;;
22924;SDS011;11628;51.072;3.712;2023-02-21T06:32:18;32.42;;;13.55;;
22924;SDS011;11628;51.072;3.712;2023-02-21T06:34:45;33.50;;;15.50;;
22924;SDS011;11628;51.072;3.712;2023-02-21T06:37:12;29.90;;;12.77;;
22924;SDS011;11628;51.072;3.712;2023-02-21T06:39:38;32.17;;;14.10;;
22924;SDS011;11628;51.072;3.712;2023-02-21T06:42:04;30.27;;;14.35;;
22924;SDS011;11628;51.072;3.712;2023-02-21T06:44:30;31.08;;;13.10;;
22924;SDS011;11628;51.072;3.712;2023-02-21T06:46:57;29.45;;;12.82;;
22924;SDS011;11628;51.072;3.712;2023-02-21T06:49:22;32.47;;;13.25;;
22924;SDS011;11628;51.072;3.712;2023-02-21T06:51:48;35.78;;;13.75;;
22924;SDS011;11628;51.072;3.712;2023-02-21T06:54:14;32.13;;;13.38;;
22924;SDS011;11628;51.072;3.712;2023-02-21T06:56:43;32.80;;;14.32;;
22924;SDS011;11628;51.072;3.712;2023-02-21T06:59:09;31.60;;;15.10;;
22924;SDS011;11628;51.072;3.712;2023-02-21T07:01:35;30.35;;;12.90;;
22924;SDS011;11628;51.072;3.712;2023-02-21T07:04:01;32.22;;;13.27;;
22924;SDS011;11628;51.072;3.712;2023-02-21T07:06:27;28.08;;;12.07;;
22924;SDS011;11628;51.072;3.712;2023-02-21T07:08:53;29.80;;;13.50;;
22924;SDS011;11628;51.072;3.712;2023-02-21T07:11:19;27.30;;;12.65;;
22924;SDS011;11628;51.072;3.712;2023-02-21T07:13:51;29.17;;;13.75;;
22924;SDS011;11628;51.072;3.712;2023-02-21T07:16:24;31.17;;;13.52;;
22924;SDS011;11628;51.072;3.712;2023-02-21T07:18:50;24.42;;;11.32;;
22924;SDS011;11628;51.072;3.712;2023-02-21T07:21:17;31.40;;;13.75;;
22924;SDS011;11628;51.072;3.712;2023-02-21T07:23:45;23.75;;;10.75;;
22924;SDS011;11628;51.072;3.712;2023-02-21T07:26:12;24.60;;;10.68;;
22924;SDS011;11628;51.072;3.712;2023-02-21T07:28:39;33.85;;;17.05;;
22924;SDS011;11628;51.072;3.712;2023-02-21T07:31:05;32.05;;;16.83;;
22924;SDS011;11628;51.072;3.712;2023-02-21T07:33:31;29.50;;;13.55;;
22924;SDS011;11628;51.072;3.712;2023-02-21T07:35:58;26.42;;;13.55;;
22924;SDS011;11628;51.072;3.712;2023-02-21T07:38:28;30.23;;;14.13;;
22924;SDS011;11628;51.072;3.712;2023-02-21T07:40:55;27.48;;;13.23;;
22924;SDS011;11628;51.072;3.712;2023-02-21T07:43:23;25.38;;;10.35;;
22924;SDS011;11628;51.072;3.712;2023-02-21T07:45:50;25.38;;;11.63;;
22924;SDS011;11628;51.072;3.712;2023-02-21T07:48:16;27.50;;;11.15;;
22924;SDS011;11628;51.072;3.712;2023-02-21T07:50:42;30.23;;;13.43;;
22924;SDS011;11628;51.072;3.712;2023-02-21T07:53:09;31.17;;;13.00;;
22924;SDS011;11628;51.072;3.712;2023-02-21T07:55:35;34.10;;;14.32;;
22924;SDS011;11628;51.072;3.712;2023-02-21T07:58:01;37.85;;;15.95;;
22924;SDS011;11628;51.072;3.712;2023-02-21T08:00:28;39.80;;;16.70;;
22924;SDS011;11628;51.072;3.712;2023-02-21T08:02:54;39.00;;;17.00;;
22924;SDS011;11628;51.072;3.712;2023-02-21T08:05:20;35.05;;;16.30;;
22924;SDS011;11628;51.072;3.712;2023-02-21T08:07:47;38.78;;;16.02;;
22924;SDS011;11628;51.072;3.712;2023-02-21T08:10:17;42.50;;;15.93;;
22924;SDS011;11628;51.072;3.712;2023-02-21T08:12:45;38.80;;;16.47;;
22924;SDS011;11628;51.072;3.712;2023-02-21T08:15:11;45.17;;;16.92;;
22924;SDS011;11628;51.072;3.712;2023-02-21T08:17:37;41.08;;;15.80;;
22924;SDS011;11628;51.072;3.712;2023-02-21T08:20:03;45.63;;;16.73;;
22924;SDS011;11628;51.072;3.712;2023-02-21T08:22:30;42.00;;;15.57;;
22924;SDS011;11628;51.072;3.712;2023-02-21T08:24:55;42.03;;;16.17;;
22924;SDS011;11628;51.072;3.712;2023-02-21T08:27:21;37.20;;;16.88;;
22924;SDS011;11628;51.072;3.712;2023-02-21T08:29:50;34.35;;;14.95;;
22924;SDS011;11628;51.072;3.712;2023-02-21T08:32:16;39.35;;;16.42;;
22924;SDS011;11628;51.072;3.712;2023-02-21T08:34:44;37.65;;;17.35;;
22924;SDS011;11628;51.072;3.712;2023-02-21T08:37:10;37.72;;;16.38;;
22924;SDS011;11628;51.072;3.712;2023-02-21T08:39:43;35.63;;;16.85;;
22924;SDS011;11628;51.072;3.712;2023-02-21T08:42:10;37.53;;;17.52;;
22924;SDS011;11628;51.072;3.712;2023-02-21T08:44:37;41.13;;;17.70;;
22924;SDS011;11628;51.072;3.712;2023-02-21T08:47:02;47.20;;;21.67;;
22924;SDS011;11628;51.072;3.712;2023-02-21T08:49:28;43.78;;;20.33;;
22924;SDS011;11628;51.072;3.712;2023-02-21T08:51:54;44.05;;;21.10;;
22924;SDS011;11628;51.072;3.712;2023-02-21T08:54:20;46.08;;;20.70;;
22924;SDS011;11628;51.072;3.712;2023-02-21T08:56:46;43.08;;;19.63;;
22924;SDS011;11628;51.072;3.712;2023-02-21T08:59:13;46.00;;;21.83;;
22924;SDS011;11628;51.072;3.712;2023-02-21T09:01:40;46.65;;;21.13;;
22924;SDS011;11628;51.072;3.712;2023-02-21T09:04:06;41.35;;;18.27;;
22924;SDS011;11628;51.072;3.712;2023-02-21T09:06:32;43.60;;;19.98;;
22924;SDS011;11628;51.072;3.712;2023-02-21T09:08:59;42.22;;;19.83;;
22924;SDS011;11628;51.072;3.712;2023-02-21T09:11:25;39.88;;;18.52;;
22924;SDS011;11628;51.072;3.712;2023-02-21T09:13:51;41.35;;;18.88;;
22924;SDS011;11628;51.072;3.712;2023-02-21T09:16:19;38.90;;;18.63;;
22924;SDS011;11628;51.072;3.712;2023-02-21T09:18:51;37.85;;;17.88;;
22924;SDS011;11628;51.072;3.712;2023-02-21T09:21:18;32.95;;;17.00;;
22924;SDS011;11628;51.072;3.712;2023-02-21T09:23:46;33.22;;;16.15;;
22924;SDS011;11628;51.072;3.712;2023-02-21T09:26:12;26.52;;;13.98;;
22924;SDS011;11628;51.072;3.712;2023-02-21T09:28:39;20.02;;;12.05;;
22924;SDS011;11628;51.072;3.712;2023-02-21T09:31:08;20.48;;;11.68;;
22924;SDS011;11628;51.072;3.712;2023-02-21T09:33:37;18.35;;;10.65;;
22924;SDS011;11628;51.072;3.712;2023-02-21T09:36:07;20.55;;;11.20;;
22924;SDS011;11628;51.072;3.712;2023-02-21T09:38:33;21.48;;;12.13;;
22924;SDS011;11628;51.072;3.712;2023-02-21T09:41:00;21.25;;;11.52;;
22924;SDS011;11628;51.072;3.712;2023-02-21T09:43:36;22.30;;;11.80;;
22924;SDS011;11628;51.072;3.712;2023-02-21T09:46:15;24.00;;;13.23;;
22924;SDS011;11628;51.072;3.712;2023-02-21T09:48:44;24.60;;;12.35;;
22924;SDS011;11628;51.072;3.712;2023-02-21T09:51:11;31.15;;;15.32;;
22924;SDS011;11628;51.072;3.712;2023-02-21T09:53:41;26.92;;;13.70;;
22924;SDS011;11628;51.072;3.712;2023-02-21T09:56:13;25.88;;;13.02;;
22924;SDS011;11628;51.072;3.712;2023-02-21T09:58:52;30.75;;;15.50;;
22924;SDS011;11628;51.072;3.712;2023-02-21T10:04:10;31.40;;;15.00;;
22924;SDS011;11628;51.072;3.712;2023-02-21T10:09:22;30.77;;;14.30;;
22924;SDS011;11628;51.072;3.712;2023-02-21T10:20:00;34.25;;;18.10;;
22924;SDS011;11628;51.072;3.712;2023-02-21T10:22:33;31.13;;;16.52;;
22924;SDS011;11628;51.072;3.712;2023-02-21T10:25:08;30.83;;;16.70;;
22924;SDS011;11628;51.072;3.712;2023-02-21T10:27:46;37.00;;;21.95;;
22924;SDS011;11628;51.072;3.712;2023-02-21T10:30:19;30.23;;;16.75;;
22924;SDS011;11628;51.072;3.712;2023-02-21T10:33:01;29.23;;;14.95;;
22924;SDS011;11628;51.072;3.712;2023-02-21T10:35:32;38.08;;;16.67;;
22924;SDS011;11628;51.072;3.712;2023-02-21T10:37:58;29.20;;;15.45;;
22924;SDS011;11628;51.072;3.712;2023-02-21T10:43:39;29.17;;;15.63;;
22924;SDS011;11628;51.072;3.712;2023-02-21T10:46:44;29.08;;;15.68;;
22924;SDS011;11628;51.072;3.712;2023-02-21T10:52:09;27.00;;;16.85;;
22924;SDS011;11628;51.072;3.712;2023-02-21T10:54:37;28.45;;;16.00;;
22924;SDS011;11628;51.072;3.712;2023-02-21T10:57:05;25.10;;;15.82;;
22924;SDS011;11628;51.072;3.712;2023-02-21T10:59:39;24.13;;;14.65;;
22924;SDS011;11628;51.072;3.712;2023-02-21T11:04:54;25.75;;;14.02;;
22924;SDS011;11628;51.072;3.712;2023-02-21T11:07:21;25.58;;;14.10;;
22924;SDS011;11628;51.072;3.712;2023-02-21T11:09:48;22.95;;;14.15;;
22924;SDS011;11628;51.072;3.712;2023-02-21T11:14:44;17.40;;;11.38;;
22924;SDS011;11628;51.072;3.712;2023-02-21T11:17:17;16.85;;;11.15;;
22924;SDS011;11628;51.072;3.712;2023-02-21T11:22:24;15.75;;;10.98;;
22924;SDS011;11628;51.072;3.712;2023-02-21T11:30:44;15.63;;;11.00;;
22924;SDS011;11628;51.072;3.712;2023-02-21T11:33:27;15.98;;;9.98;;
22924;SDS011;11628;51.072;3.712;2023-02-21T11:36:16;20.13;;;10.93;;
22924;SDS011;11628;51.072;3.712;2023-02-21T11:38:45;15.52;;;11.13;;
22924;SDS011;11628;51.072;3.712;2023-02-21T11:41:32;14.60;;;10.85;;
22924;SDS011;11628;51.072;3.712;2023-02-21T11:44:17;15.95;;;12.00;;
22924;SDS011;11628;51.072;3.712;2023-02-21T11:46:54;16.67;;;12.27;;
22924;SDS011;11628;51.072;3.712;2023-02-21T11:52:01;14.80;;;10.48;;
22924;SDS011;11628;51.072;3.712;2023-02-21T11:54:32;13.80;;;10.40;;
22924;SDS011;11628;51.072;3.712;2023-02-21T11:57:15;15.07;;;10.02;;
22924;SDS011;11628;51.072;3.712;2023-02-21T12:19:05;18.17;;;13.25;;
22924;SDS011;11628;51.072;3.712;2023-02-21T12:24:55;18.65;;;12.32;;
22924;SDS011;11628;51.072;3.712;2023-02-21T12:36:04;17.33;;;12.95;;
22924;SDS011;11628;51.072;3.712;2023-02-21T12:38:58;20.25;;;14.55;;
22924;SDS011;11628;51.072;3.712;2023-02-21T12:41:47;18.67;;;14.05;;
22924;SDS011;11628;51.072;3.712;2023-02-21T12:44:21;19.17;;;15.27;;
22924;SDS011;11628;51.072;3.712;2023-02-21T12:50:20;20.45;;;15.15;;
22924;SDS011;11628;51.072;3.712;2023-02-21T12:53:11;18.52;;;15.05;;
22924;SDS011;11628;51.072;3.712;2023-02-21T12:55:44;18.60;;;14.45;;
22924;SDS011;11628;51.072;3.712;2023-02-21T13:06:21;16.48;;;12.98;;
22924;SDS011;11628;51.072;3.712;2023-02-21T13:11:45;15.88;;;12.25;;
22924;SDS011;11628;51.072;3.712;2023-02-21T13:14:25;15.23;;;12.60;;
22924;SDS011;11628;51.072;3.712;2023-02-21T13:16:58;16.15;;;12.18;;
22924;SDS011;11628;51.072;3.712;2023-02-21T13:19:24;18.42;;;14.88;;
22924;SDS011;11628;51.072;3.712;2023-02-21T13:22:14;15.50;;;11.63;;
22924;SDS011;11628;51.072;3.712;2023-02-21T13:30:45;13.93;;;12.40;;
22924;SDS011;11628;51.072;3.712;2023-02-21T13:33:26;14.73;;;11.98;;
22924;SDS011;11628;51.072;3.712;2023-02-21T13:36:29;14.93;;;11.88;;
22924;SDS011;11628;51.072;3.712;2023-02-21T13:39:16;14.30;;;12.30;;
22924;SDS011;11628;51.072;3.712;2023-02-21T13:41:50;16.70;;;13.38;;
22924;SDS011;11628;51.072;3.712;2023-02-21T13:47:11;18.45;;;13.38;;
22924;SDS011;11628;51.072;3.712;2023-02-21T13:49:54;16.23;;;14.40;;
22924;SDS011;11628;51.072;3.712;2023-02-21T14:13:18;15.45;;;13.75;;
22924;SDS011;11628;51.072;3.712;2023-02-21T14:15:57;15.73;;;13.85;;
22924;SDS011;11628;51.072;3.712;2023-02-21T14:24:14;17.33;;;14.88;;
22924;SDS011;11628;51.072;3.712;2023-02-21T14:29:30;22.08;;;15.45;;
22924;SDS011;11628;51.072;3.712;2023-02-21T14:39:50;20.85;;;17.23;;
22924;SDS011;11628;51.072;3.712;2023-02-21T14:50:31;19.60;;;16.08;;
22924;SDS011;11628;51.072;3.712;2023-02-21T14:55:59;18.17;;;15.35;;
22924;SDS011;11628;51.072;3.712;2023-02-21T15:01:52;26.08;;;21.92;;
22924;SDS011;11628;51.072;3.712;2023-02-21T15:04:25;20.17;;;16.70;;
22924;SDS011;11628;51.072;3.712;2023-02-21T15:06:59;19.58;;;16.05;;
22924;SDS011;11628;51.072;3.712;2023-02-21T15:09:38;18.38;;;15.68;;
22924;SDS011;11628;51.072;3.712;2023-02-21T15:12:07;21.13;;;16.65;;
22924;SDS011;11628;51.072;3.712;2023-02-21T15:14:45;18.88;;;15.48;;
22924;SDS011;11628;51.072;3.712;2023-02-21T15:17:20;19.55;;;15.63;;
22924;SDS011;11628;51.072;3.712;2023-02-21T15:20:00;21.23;;;16.92;;
22924;SDS011;11628;51.072;3.712;2023-02-21T15:22:32;19.05;;;15.43;;
22924;SDS011;11628;51.072;3.712;2023-02-21T15:27:36;20.67;;;16.10;;
22924;SDS011;11628;51.072;3.712;2023-02-21T15:30:19;22.30;;;15.82;;
22924;SDS011;11628;51.072;3.712;2023-02-21T15:32:55;18.50;;;15.52;;
22924;SDS011;11628;51.072;3.712;2023-02-21T15:35:31;18.73;;;15.48;;
22924;SDS011;11628;51.072;3.712;2023-02-21T15:38:19;19.73;;;15.73;;
22924;SDS011;11628;51.072;3.712;2023-02-21T15:40:51;18.63;;;15.23;;
22924;SDS011;11628;51.072;3.712;2023-02-21T15:43:38;22.55;;;16.42;;
22924;SDS011;11628;51.072;3.712;2023-02-21T15:46:26;19.38;;;16.00;;
22924;SDS011;11628;51.072;3.712;2023-02-21T15:48:56;21.23;;;15.73;;
22924;SDS011;11628;51.072;3.712;2023-02-21T15:51:26;21.98;;;16.02;;
22924;SDS011;11628;51.072;3.712;2023-02-21T15:54:06;20.15;;;16.13;;
22924;SDS011;11628;51.072;3.712;2023-02-21T15:56:33;25.48;;;18.63;;
22924;SDS011;11628;51.072;3.712;2023-02-21T15:59:10;22.15;;;16.58;;
22924;SDS011;11628;51.072;3.712;2023-02-21T16:02:10;22.95;;;17.50;;
22924;SDS011;11628;51.072;3.712;2023-02-21T16:04:42;23.95;;;17.58;;
22924;SDS011;11628;51.072;3.712;2023-02-21T16:07:31;22.10;;;16.33;;
22924;SDS011;11628;51.072;3.712;2023-02-21T16:10:08;22.73;;;17.00;;
22924;SDS011;11628;51.072;3.712;2023-02-21T16:12:40;22.15;;;16.15;;
22924;SDS011;11628;51.072;3.712;2023-02-21T16:17:51;22.10;;;15.90;;
22924;SDS011;11628;51.072;3.712;2023-02-21T16:20:20;20.85;;;15.82;;
22924;SDS011;11628;51.072;3.712;2023-02-21T16:23:10;22.75;;;16.17;;
22924;SDS011;11628;51.072;3.712;2023-02-21T16:25:56;21.98;;;16.40;;
22924;SDS011;11628;51.072;3.712;2023-02-21T16:28:23;21.52;;;15.95;;
22924;SDS011;11628;51.072;3.712;2023-02-21T16:30:50;22.42;;;15.75;;
22924;SDS011;11628;51.072;3.712;2023-02-21T16:33:16;20.50;;;15.40;;
22924;SDS011;11628;51.072;3.712;2023-02-21T16:35:42;21.55;;;15.98;;
22924;SDS011;11628;51.072;3.712;2023-02-21T16:38:10;19.23;;;14.95;;
22924;SDS011;11628;51.072;3.712;2023-02-21T16:40:39;24.52;;;16.50;;
22924;SDS011;11628;51.072;3.712;2023-02-21T16:43:06;19.52;;;14.82;;
22924;SDS011;11628;51.072;3.712;2023-02-21T16:45:32;22.33;;;15.80;;
22924;SDS011;11628;51.072;3.712;2023-02-21T16:47:58;21.00;;;15.63;;
22924;SDS011;11628;51.072;3.712;2023-02-21T16:52:55;19.95;;;14.95;;
22924;SDS011;11628;51.072;3.712;2023-02-21T16:55:21;20.17;;;15.50;;
22924;SDS011;11628;51.072;3.712;2023-02-21T16:57:48;19.83;;;14.52;;
22924;SDS011;11628;51.072;3.712;2023-02-21T17:00:16;19.35;;;13.95;;
22924;SDS011;11628;51.072;3.712;2023-02-21T17:02:47;17.88;;;13.73;;
22924;SDS011;11628;51.072;3.712;2023-02-21T17:05:15;19.88;;;13.52;;
22924;SDS011;11628;51.072;3.712;2023-02-21T17:07:41;20.73;;;14.15;;
22924;SDS011;11628;51.072;3.712;2023-02-21T17:10:08;18.20;;;13.93;;
22924;SDS011;11628;51.072;3.712;2023-02-21T17:12:35;18.77;;;14.02;;
22924;SDS011;11628;51.072;3.712;2023-02-21T17:15:01;19.95;;;14.68;;
22924;SDS011;11628;51.072;3.712;2023-02-21T17:17:28;18.10;;;14.05;;
22924;SDS011;11628;51.072;3.712;2023-02-21T17:19:54;19.67;;;14.50;;
22924;SDS011;11628;51.072;3.712;2023-02-21T17:22:20;18.92;;;14.15;;
22924;SDS011;11628;51.072;3.712;2023-02-21T17:24:45;18.55;;;14.85;;
22924;SDS011;11628;51.072;3.712;2023-02-21T17:27:12;20.58;;;15.02;;
22924;SDS011;11628;51.072;3.712;2023-02-21T17:29:37;18.92;;;14.73;;
22924;SDS011;11628;51.072;3.712;2023-02-21T17:32:04;21.63;;;17.55;;
22924;SDS011;11628;51.072;3.712;2023-02-21T17:34:34;22.20;;;16.25;;
22924;SDS011;11628;51.072;3.712;2023-02-21T17:37:01;20.55;;;15.65;;
22924;SDS011;11628;51.072;3.712;2023-02-21T17:39:28;19.35;;;16.10;;
22924;SDS011;11628;51.072;3.712;2023-02-21T17:41:55;20.23;;;15.98;;
22924;SDS011;11628;51.072;3.712;2023-02-21T17:44:21;18.42;;;15.55;;
22924;SDS011;11628;51.072;3.712;2023-02-21T17:46:55;19.77;;;15.43;;
22924;SDS011;11628;51.072;3.712;2023-02-21T17:49:22;19.75;;;15.80;;
22924;SDS011;11628;51.072;3.712;2023-02-21T17:51:50;18.67;;;15.27;;
22924;SDS011;11628;51.072;3.712;2023-02-21T17:54:17;18.02;;;14.48;;
22924;SDS011;11628;51.072;3.712;2023-02-21T17:56:48;20.73;;;14.75;;
22924;SDS011;11628;51.072;3.712;2023-02-21T17:59:15;23.30;;;16.75;;
22924;SDS011;11628;51.072;3.712;2023-02-21T18:01:41;24.75;;;17.38;;
22924;SDS011;11628;51.072;3.712;2023-02-21T18:04:08;26.35;;;18.00;;